Terminal Aerodrome Forecast
Issued by NWS

Home | Current Version | Previous Version | Text Only | Print | Product List | Glossary On
Versions: 1 2 3 4 5 6 7 8 9 10 11 12 13 14 15 16 17 18 19 20 21 22 23 24 25 26
000
FTUS43 KAPX 271840 AAB
TAFMBL
TAF AMD
KMBL 271840Z 2719/2818 28010G15KT 5SM -RA BR OVC005
     FM272000 28010G15KT 4SM BR SCT005 OVC015
     FM272200 27009KT P6SM SCT020 BKN040
     FM280200 15003KT P6SM SCT040 BKN060
     FM281200 VRB05KT 5SM BR SCT040
      AMD LTD TO CLD VIS AND WIND=

USA.gov is the U.S. government's official web portal to all federal, state and local government web resources and services.